Terminal Aerodrome Forecast
Issued by NWS Shreveport, LA

Home | Current Version | Previous Version | Text Only | Print | Product List | Glossary On
Versions: 1 2 3 4 5 6 7 8 9 10 11 12 13 14 15 16 17
000
FTUS44 KSHV 180210 AAA
TAFLFK
TAF AMD
KLFK 180210Z 1802/1824 VRB03KT 1 1/2SM BR OVC003
      TEMPO 1802/1804 1/2SM FG OVC002
     FM180400 00000KT 1/2SM FG OVC002
      TEMPO 1804/1806 2SM BR OVC003
     FM181600 06003KT 1 1/2SM BR OVC003
     FM181800 08004KT 6SM BR OVC005=

USA.gov is the U.S. government's official web portal to all federal, state and local government web resources and services.